createdAt,value
2018-05-10T00:02:30.912Z,63.20
2018-05-10T00:08:03.059Z,63.40
2018-05-10T00:13:31.215Z,63.40
2018-05-10T00:18:59.369Z,63.70
2018-05-10T00:24:28.295Z,64.50
2018-05-10T00:29:57.223Z,64.70
2018-05-10T00:35:26.135Z,64.70
2018-05-10T00:40:54.323Z,64.80
2018-05-10T00:46:22.486Z,65.00
2018-05-10T00:51:50.657Z,65.10
2018-05-10T00:57:18.809Z,65.40
2018-05-10T01:02:47.888Z,65.40
2018-05-10T01:08:16.810Z,65.50
2018-05-10T01:13:44.939Z,65.40
2018-05-10T01:19:13.098Z,65.20
2018-05-10T01:24:41.236Z,65.20
2018-05-10T01:30:09.379Z,65.10
2018-05-10T01:35:55.393Z,65.00
2018-05-10T01:41:23.590Z,64.90
2018-05-10T01:46:51.737Z,64.80
2018-05-10T01:52:19.894Z,64.80
2018-05-10T01:57:49.965Z,64.80
2018-05-10T02:03:18.895Z,65.10
2018-05-10T02:08:47.024Z,65.10
2018-05-10T02:14:15.935Z,65.20
2018-05-10T02:19:44.084Z,65.20
2018-05-10T02:25:12.998Z,65.10
2018-05-10T02:30:41.217Z,65.10
2018-05-10T02:36:09.389Z,65.30
2018-05-10T02:41:37.551Z,65.10
2018-05-10T02:47:05.722Z,64.80
2018-05-10T02:52:33.998Z,64.70
2018-05-10T02:58:02.254Z,64.70
2018-05-10T03:03:30.425Z,64.70
2018-05-10T03:08:58.574Z,64.80
2018-05-10T03:14:26.744Z,64.60
2018-05-10T03:19:54.875Z,64.60
2018-05-10T03:25:23.068Z,64.50
2018-05-10T03:30:51.226Z,64.60
2018-05-10T03:36:19.394Z,64.70
2018-05-10T03:41:48.317Z,64.90
2018-05-10T03:47:17.219Z,65.00
2018-05-10T03:52:46.532Z,65.00
2018-05-10T03:58:14.690Z,65.10
2018-05-10T04:04:01.066Z,65.00
2018-05-10T04:09:47.019Z,65.20
2018-05-10T04:15:15.246Z,65.30
2018-05-10T04:20:44.197Z,65.50
2018-05-10T04:26:12.353Z,65.50
2018-05-10T04:31:40.529Z,65.10
2018-05-10T04:37:08.701Z,64.90
2018-05-10T04:42:36.861Z,64.60
2018-05-10T04:48:05.807Z,64.20
2018-05-10T04:53:33.981Z,64.20
2018-05-10T04:59:03.069Z,64.10
2018-05-10T05:04:31.276Z,63.70
2018-05-10T05:09:59.442Z,63.50
2018-05-10T05:15:27.585Z,63.40
2018-05-10T05:20:55.757Z,63.00
2018-05-10T05:26:23.909Z,62.60
2018-05-10T05:31:52.037Z,62.10
2018-05-10T05:37:20.204Z,61.90
2018-05-10T05:42:48.339Z,61.30
2018-05-10T05:48:16.480Z,60.50
2018-05-10T05:53:44.612Z,60.50
2018-05-10T05:59:25.272Z,59.90
2018-05-10T06:04:54.191Z,59.00
2018-05-10T06:10:22.337Z,58.80
2018-05-10T06:15:50.588Z,58.50
2018-05-10T06:21:18.651Z,58.30
2018-05-10T06:26:47.575Z,58.20
2018-05-10T06:32:15.707Z,58.10
2018-05-10T06:37:43.848Z,57.90
2018-05-10T06:43:11.993Z,57.90
2018-05-10T06:48:40.146Z,57.20
2018-05-10T06:54:09.324Z,56.20
2018-05-10T06:59:37.545Z,55.40
2018-05-10T07:05:08.360Z,53.30
2018-05-10T07:10:40.097Z,53.30
2018-05-10T07:16:08.285Z,53.10
2018-05-10T07:21:36.509Z,52.60
2018-05-10T07:27:04.669Z,52.30
2018-05-10T07:32:32.869Z,52.20
2018-05-10T07:38:01.038Z,51.70
2018-05-10T07:43:30.010Z,51.40
2018-05-10T07:48:58.193Z,51.30
2018-05-10T07:54:27.230Z,50.10
2018-05-10T07:59:55.449Z,50.00
2018-05-10T08:05:24.368Z,49.70
2018-05-10T08:10:52.496Z,49.60
2018-05-10T08:16:20.637Z,49.80
2018-05-10T08:21:49.562Z,50.20
2018-05-10T08:27:18.470Z,49.80
2018-05-10T08:32:46.615Z,49.70
2018-05-10T08:38:15.517Z,49.40
2018-05-10T08:43:43.673Z,49.30
2018-05-10T08:49:12.572Z,51.00
2018-05-10T08:54:40.756Z,51.00
2018-05-10T09:00:08.972Z,50.60
2018-05-10T09:05:37.226Z,50.40
2018-05-10T09:11:05.346Z,50.00
2018-05-10T09:16:33.693Z,49.70
2018-05-10T09:22:01.911Z,48.00
2018-05-10T09:27:30.797Z,47.20
2018-05-10T09:32:58.996Z,45.20
2018-05-10T09:38:27.903Z,45.30
2018-05-10T09:43:56.067Z,45.30
2018-05-10T09:49:24.245Z,45.50
2018-05-10T09:54:52.422Z,46.20
2018-05-10T10:00:26.219Z,45.40
2018-05-10T10:05:54.382Z,44.20
2018-05-10T10:11:22.533Z,43.60
2018-05-10T10:16:50.684Z,42.80
2018-05-10T10:22:18.837Z,42.80
2018-05-10T10:27:47.765Z,41.60
2018-05-10T10:33:16.689Z,42.50
2018-05-10T10:38:45.601Z,42.20
2018-05-10T10:44:13.790Z,42.00
2018-05-10T10:49:41.926Z,42.20
2018-05-10T10:55:10.083Z,42.30
2018-05-10T11:00:38.224Z,41.20
2018-05-10T11:06:07.223Z,42.60
2018-05-10T11:11:35.485Z,42.50
2018-05-10T11:17:04.512Z,42.50
2018-05-10T11:22:33.532Z,42.30
2018-05-10T11:28:02.393Z,41.90
2018-05-10T11:33:31.329Z,41.60
2018-05-10T11:39:00.282Z,41.10
2018-05-10T11:44:29.274Z,41.80
2018-05-10T11:49:57.427Z,41.70
2018-05-10T11:55:26.357Z,40.50
2018-05-10T12:00:55.272Z,39.40
2018-05-10T12:06:23.417Z,39.20
2018-05-10T12:11:51.565Z,41.20
2018-05-10T12:17:19.696Z,42.70
2018-05-10T12:22:49.822Z,42.30
2018-05-10T12:28:19.618Z,42.70
2018-05-10T12:33:47.776Z,42.70
2018-05-10T12:39:15.997Z,43.90
2018-05-10T12:44:44.177Z,44.70
2018-05-10T12:50:12.328Z,44.80
2018-05-10T12:55:40.524Z,44.70
2018-05-10T13:01:08.734Z,44.60
2018-05-10T13:06:36.940Z,44.30
2018-05-10T13:12:06.896Z,45.30
2018-05-10T13:17:35.068Z,45.30
2018-05-10T13:23:04.397Z,44.60
2018-05-10T13:28:32.650Z,43.90
2018-05-10T13:34:00.842Z,43.50
2018-05-10T13:39:28.997Z,44.30
2018-05-10T13:45:02.969Z,42.40
2018-05-10T13:50:31.984Z,42.50
2018-05-10T13:56:00.130Z,42.40
2018-05-10T14:01:29.035Z,42.80
2018-05-10T14:06:57.191Z,42.80
2018-05-10T14:12:26.141Z,42.80
2018-05-10T14:17:54.291Z,42.80
2018-05-10T14:23:22.581Z,42.10
2018-05-10T14:28:51.522Z,41.30
2018-05-10T14:34:20.555Z,41.10
2018-05-10T14:39:48.712Z,41.00
2018-05-10T14:45:16.865Z,41.80
2018-05-10T14:50:45.054Z,41.80
2018-05-10T14:56:13.201Z,42.20
2018-05-10T15:01:41.387Z,42.30
2018-05-10T15:07:09.610Z,42.80
2018-05-10T15:12:37.797Z,43.10
2018-05-10T15:18:05.956Z,43.50
2018-05-10T15:23:34.155Z,43.70
2018-05-10T15:29:03.074Z,44.00
2018-05-10T15:34:31.254Z,43.90
2018-05-10T15:39:59.421Z,44.30
2018-05-10T15:45:27.580Z,45.00
2018-05-10T15:50:55.719Z,45.50
2018-05-10T15:56:23.874Z,45.20
2018-05-10T16:01:52.782Z,46.30
2018-05-10T16:07:20.928Z,46.30
2018-05-10T16:12:49.841Z,47.10
2018-05-10T16:18:17.980Z,47.10
2018-05-10T16:23:46.128Z,47.40
2018-05-10T16:29:14.273Z,47.30
2018-05-10T16:34:42.422Z,47.40
2018-05-10T16:40:10.760Z,46.90
2018-05-10T16:45:39.044Z,47.00
2018-05-10T16:51:07.274Z,47.10
2018-05-10T16:56:35.434Z,47.60
2018-05-10T17:02:04.388Z,48.80
2018-05-10T17:07:32.537Z,48.80
2018-05-10T17:13:00.891Z,49.30
2018-05-10T17:18:29.027Z,49.50
2018-05-10T17:23:57.950Z,51.20
2018-05-10T17:29:26.113Z,50.60
2018-05-10T17:34:54.255Z,51.00
2018-05-10T17:40:22.392Z,51.90
2018-05-10T17:45:50.555Z,52.70
2018-05-10T17:51:19.463Z,54.20
2018-05-10T17:56:47.622Z,54.30
2018-05-10T18:02:15.769Z,54.60
2018-05-10T18:07:43.892Z,54.60
2018-05-10T18:13:12.073Z,54.80
2018-05-10T18:18:40.248Z,55.10
2018-05-10T18:24:08.433Z,55.30
2018-05-10T18:29:36.603Z,55.50
2018-05-10T18:35:04.753Z,56.10
2018-05-10T18:40:32.917Z,56.60
2018-05-10T18:46:01.121Z,56.90
2018-05-10T18:51:30.016Z,57.40
2018-05-10T18:56:58.925Z,58.20
2018-05-10T19:02:27.068Z,58.20
2018-05-10T19:07:55.222Z,59.00
2018-05-10T19:13:23.343Z,60.90
2018-05-10T19:18:51.488Z,62.00
2018-05-10T19:24:19.616Z,63.10
2018-05-10T19:29:47.786Z,64.50
2018-05-10T19:35:15.916Z,66.00
2018-05-10T19:40:44.069Z,66.70
2018-05-10T19:46:12.197Z,67.10
2018-05-10T19:51:40.357Z,67.30
2018-05-10T19:57:09.282Z,67.90
2018-05-10T20:02:38.215Z,68.30
2018-05-10T20:08:07.885Z,68.20
2018-05-10T20:13:36.815Z,68.00
2018-05-10T20:19:04.979Z,68.00
2018-05-10T20:24:33.124Z,67.90
2018-05-10T20:30:01.359Z,68.20
2018-05-10T20:35:29.513Z,68.30
2018-05-10T20:40:58.474Z,69.30
2018-05-10T20:46:26.602Z,69.40
2018-05-10T20:51:54.771Z,69.30
2018-05-10T20:57:23.676Z,69.60
2018-05-10T21:02:51.880Z,69.70
2018-05-10T21:08:20.403Z,70.00
2018-05-10T21:13:48.582Z,70.70
2018-05-10T21:19:16.742Z,70.60
2018-05-10T21:24:44.880Z,70.60
2018-05-10T21:30:13.151Z,71.00
2018-05-10T21:35:42.076Z,71.40
2018-05-10T21:41:11.001Z,71.70
2018-05-10T21:46:39.212Z,71.70
2018-05-10T21:52:07.395Z,71.40
2018-05-10T21:57:36.303Z,71.40
2018-05-10T22:03:05.250Z,71.40
2018-05-10T22:08:34.233Z,73.60
2018-05-10T22:14:02.398Z,73.60
2018-05-10T22:19:31.318Z,72.80
2018-05-10T22:24:59.465Z,72.10
2018-05-10T22:30:28.395Z,72.20
2018-05-10T22:35:57.363Z,72.20
2018-05-10T22:41:25.516Z,72.20
2018-05-10T22:46:53.639Z,72.60
2018-05-10T22:52:21.782Z,72.80
2018-05-10T22:57:49.931Z,73.20
2018-05-10T23:03:18.066Z,73.20
2018-05-10T23:08:46.193Z,73.60
2018-05-10T23:14:14.379Z,73.40
2018-05-10T23:19:43.301Z,73.80
2018-05-10T23:25:12.213Z,74.50
2018-05-10T23:30:40.368Z,74.20
2018-05-10T23:36:09.272Z,74.90
2018-05-10T23:41:37.415Z,74.90
2018-05-10T23:47:05.556Z,76.00
2018-05-10T23:52:33.755Z,75.50
2018-05-10T23:58:02.665Z,76.90
